Time;durP1;ratioP1;P1;durP2;ratioP2;P2;SDS_P1;SDS_P2;PMS_P1;PMS_P2;Temp;Humidity;BMP_temperature;BMP_pressure;BME280_temperature;BME280_humidity;BME280_pressure;Samples;Min_cycle;Max_cycle;Signal;HPM_P1;HPM_P2
2021/05/14 00:00:55;;;;;;;1.57;1.47;;;14.10;45.40;;;;;;10452625;28;20795;-70
2021/05/14 00:05:58;;;;;;;1.40;1.30;;;14.10;45.50;;;;;;10464049;28;20232;-69
2021/05/14 00:11:01;;;;;;;1.60;1.50;;;14.00;45.50;;;;;;10457867;28;20278;-69
2021/05/14 00:16:07;;;;;;;1.40;1.30;;;14.00;45.40;;;;;;10452779;28;20244;-69
2021/05/14 00:21:10;;;;;;;1.60;1.50;;;14.00;45.60;;;;;;10457477;28;20232;-68
2021/05/14 00:26:13;;;;;;;1.60;1.50;;;14.00;45.30;;;;;;10443431;28;20287;-68
2021/05/14 00:31:17;;;;;;;1.60;1.50;;;14.00;45.10;;;;;;10454062;28;20313;-69
2021/05/14 00:36:20;;;;;;;1.70;1.60;;;14.10;45.30;;;;;;10466429;28;20224;-69
2021/05/14 00:41:23;;;;;;;1.60;1.50;;;14.10;45.10;;;;;;10425833;28;20286;-69
2021/05/14 00:46:26;;;;;;;1.90;1.80;;;14.00;45.00;;;;;;10447989;28;20229;-69
2021/05/14 00:51:29;;;;;;;2.30;1.73;;;14.00;45.10;;;;;;10450840;28;20244;-69
2021/05/14 00:56:32;;;;;;;2.00;1.70;;;14.00;44.80;;;;;;10457072;28;20308;-69
2021/05/14 01:01:36;;;;;;;1.60;1.50;;;14.00;44.90;;;;;;10444984;28;20387;-69
2021/05/14 01:06:39;;;;;;;1.67;1.57;;;13.90;45.10;;;;;;10448661;28;20851;-69
2021/05/14 01:11:41;;;;;;;1.40;1.40;;;13.90;44.80;;;;;;10453706;28;20307;-69
2021/05/14 01:16:46;;;;;;;1.30;1.30;;;13.90;45.60;;;;;;10450248;28;20217;-69
2021/05/14 01:21:50;;;;;;;1.40;1.30;;;13.80;44.80;;;;;;10455287;28;20331;-69
2021/05/14 01:26:53;;;;;;;1.63;1.53;;;13.80;44.80;;;;;;10447826;28;20221;-69
2021/05/14 01:31:56;;;;;;;1.77;1.67;;;13.70;44.80;;;;;;10427587;28;20322;-69
2021/05/14 01:37:01;;;;;;;1.60;1.50;;;13.70;45.00;;;;;;10456859;28;21013;-69
2021/05/14 01:42:05;;;;;;;2.80;1.67;;;13.70;44.90;;;;;;10450204;28;20256;-69
2021/05/14 01:47:07;;;;;;;1.63;1.53;;;13.60;45.00;;;;;;10450979;28;20220;-69
2021/05/14 01:52:11;;;;;;;1.90;1.80;;;13.50;45.00;;;;;;10451068;28;20452;-69
2021/05/14 01:57:14;;;;;;;2.10;2.00;;;13.50;45.20;;;;;;10449886;28;20332;-69
2021/05/14 02:02:19;;;;;;;2.07;1.97;;;13.50;45.20;;;;;;10455210;28;20947;-69
2021/05/14 02:07:23;;;;;;;2.50;2.30;;;13.40;45.10;;;;;;10439369;28;20252;-69
2021/05/14 02:12:26;;;;;;;2.37;2.17;;;13.40;45.20;;;;;;10468749;28;21042;-69
2021/05/14 02:17:29;;;;;;;2.10;1.90;;;13.30;45.10;;;;;;10448581;28;20313;-69
2021/05/14 02:22:33;;;;;;;3.43;2.50;;;13.30;45.10;;;;;;10430056;28;20311;-68
2021/05/14 02:27:36;;;;;;;2.20;2.00;;;13.20;45.10;;;;;;10453157;28;20249;-70
2021/05/14 02:32:38;;;;;;;2.50;2.30;;;13.20;45.20;;;;;;10449385;28;20802;-69
2021/05/14 02:37:43;;;;;;;2.60;2.40;;;13.10;45.10;;;;;;10444468;28;20226;-69
2021/05/14 02:42:46;;;;;;;2.30;2.10;;;13.10;45.30;;;;;;10449156;28;20232;-69
2021/05/14 02:47:49;;;;;;;3.43;2.20;;;13.00;44.90;;;;;;10450410;28;20668;-69
2021/05/14 02:52:53;;;;;;;3.20;1.90;;;13.00;45.00;;;;;;10458026;28;20307;-69
2021/05/14 02:57:55;;;;;;;2.10;1.90;;;13.00;44.90;;;;;;10461875;28;20224;-68
2021/05/14 03:02:58;;;;;;;1.83;1.73;;;12.90;44.80;;;;;;10459721;28;20239;-69
2021/05/14 03:08:02;;;;;;;2.00;1.90;;;12.90;44.80;;;;;;10455218;28;20256;-69
2021/05/14 03:13:05;;;;;;;1.93;1.80;;;12.90;44.80;;;;;;10460127;28;20312;-69
2021/05/14 03:18:08;;;;;;;2.47;1.70;;;12.80;44.60;;;;;;10455704;28;20774;-69
2021/05/14 03:23:11;;;;;;;2.07;1.87;;;12.80;44.50;;;;;;10466013;28;20237;-70
2021/05/14 03:28:14;;;;;;;4.17;1.70;;;12.80;44.50;;;;;;10447825;28;20307;-69
2021/05/14 03:33:20;;;;;;;1.70;1.60;;;12.70;44.40;;;;;;10451825;28;20277;-69
2021/05/14 03:38:30;;;;;;;2.03;1.60;;;12.70;44.40;;;;;;10457158;28;20308;-69
2021/05/14 03:43:33;;;;;;;3.87;1.87;;;12.60;45.00;;;;;;10457218;28;20239;-69
2021/05/14 03:48:36;;;;;;;1.77;1.67;;;12.60;44.30;;;;;;10453992;28;20316;-69
2021/05/14 03:53:40;;;;;;;3.40;3.00;;;12.50;44.30;;;;;;10447984;28;20803;-69
2021/05/14 03:58:43;;;;;;;2.10;1.90;;;12.50;44.20;;;;;;10451246;28;20271;-69
2021/05/14 04:03:46;;;;;;;1.90;1.73;;;12.50;44.20;;;;;;10454299;28;20304;-69
2021/05/14 04:08:49;;;;;;;1.67;1.57;;;12.40;44.10;;;;;;10462286;28;20257;-68
2021/05/14 04:19:12;;;;;;;2.00;1.80;;;12.30;44.30;;;;;;10438750;28;20232;-69
2021/05/14 04:24:16;;;;;;;1.90;1.60;;;12.30;44.30;;;;;;10450802;28;20286;-69
2021/05/14 04:29:19;;;;;;;2.60;1.60;;;12.30;44.30;;;;;;10440698;28;20747;-69
2021/05/14 04:34:22;;;;;;;2.07;1.53;;;12.30;44.30;;;;;;10448258;28;20701;-69
2021/05/14 04:39:34;;;;;;;1.60;1.43;;;12.30;44.40;;;;;;10444222;28;20948;-69
2021/05/14 04:44:37;;;;;;;1.60;1.50;;;12.30;44.40;;;;;;10462876;28;20252;-69
2021/05/14 04:49:40;;;;;;;1.97;1.77;;;12.30;44.50;;;;;;10462872;28;20254;-69
2021/05/14 04:54:43;;;;;;;2.07;1.60;;;12.30;44.50;;;;;;10450773;28;20236;-69
2021/05/14 04:59:46;;;;;;;1.97;1.50;;;12.30;44.60;;;;;;10447030;28;20645;-69
2021/05/14 05:04:49;;;;;;;1.77;1.67;;;12.40;44.50;;;;;;10456512;28;20235;-69
2021/05/14 05:09:52;;;;;;;2.57;1.97;;;12.40;44.60;;;;;;10453237;28;20315;-69
2021/05/14 05:14:55;;;;;;;2.13;1.80;;;12.50;44.50;;;;;;10444258;28;20270;-68
2021/05/14 05:19:58;;;;;;;2.53;1.90;;;12.50;44.60;;;;;;10454038;28;20249;-68
2021/05/14 05:25:03;;;;;;;2.10;1.90;;;12.50;44.40;;;;;;10449930;28;20697;-69
2021/05/14 05:30:07;;;;;;;2.33;1.80;;;12.40;44.50;;;;;;10449380;28;20607;-69
2021/05/14 05:35:12;;;;;;;1.73;1.63;;;12.40;44.80;;;;;;10444636;28;20707;-69
2021/05/14 05:40:15;;;;;;;1.97;1.80;;;12.50;45.10;;;;;;10440351;28;20229;-68
2021/05/14 05:45:18;;;;;;;2.80;1.57;;;12.50;45.30;;;;;;10450553;28;20312;-69
2021/05/14 05:50:21;;;;;;;2.07;1.93;;;12.70;45.40;;;;;;10449534;28;20689;-71
2021/05/14 05:55:25;;;;;;;2.07;1.87;;;12.80;45.30;;;;;;10440634;28;20252;-71
2021/05/14 06:00:27;;;;;;;1.50;1.40;;;13.00;45.50;;;;;;10440987;28;20315;-71
2021/05/14 06:05:30;;;;;;;2.37;1.50;;;13.10;45.40;;;;;;10439059;28;20300;-71
2021/05/14 06:10:34;;;;;;;1.57;1.47;;;13.30;45.30;;;;;;10447107;28;20559;-71
2021/05/14 06:15:37;;;;;;;1.53;1.43;;;13.50;45.00;;;;;;10444933;28;20252;-72
2021/05/14 06:20:42;;;;;;;1.90;1.53;;;13.60;45.20;;;;;;10447233;28;20339;-71
2021/05/14 06:25:46;;;;;;;1.63;1.50;;;13.80;45.80;;;;;;10450802;28;20221;-71
2021/05/14 06:30:50;;;;;;;1.50;1.37;;;14.00;44.70;;;;;;10421368;28;20236;-71
2021/05/14 06:35:52;;;;;;;1.60;1.50;;;14.10;44.70;;;;;;10450227;28;20243;-71
2021/05/14 06:40:56;;;;;;;1.47;1.37;;;14.20;44.40;;;;;;10444263;28;20237;-71
2021/05/14 06:46:01;;;;;;;1.30;1.20;;;14.30;44.50;;;;;;10443395;28;20228;-71
2021/05/14 06:51:09;;;;;;;1.50;1.40;;;14.40;44.50;;;;;;10438782;28;20297;-71
2021/05/14 06:56:13;;;;;;;1.67;1.30;;;14.50;44.00;;;;;;10431774;28;20283;-71
2021/05/14 07:01:16;;;;;;;1.60;1.50;;;14.60;44.00;;;;;;10441598;28;20896;-71
2021/05/14 07:06:19;;;;;;;1.50;1.27;;;14.70;44.10;;;;;;10439037;28;20233;-71
2021/05/14 07:11:23;;;;;;;1.10;1.00;;;14.80;44.20;;;;;;10438071;28;20335;-71
2021/05/14 07:16:27;;;;;;;1.73;1.30;;;14.90;44.10;;;;;;10429676;28;20233;-71
2021/05/14 07:21:31;;;;;;;1.70;1.50;;;15.00;44.30;;;;;;10438421;28;20260;-71
2021/05/14 07:26:35;;;;;;;2.27;1.80;;;15.10;44.40;;;;;;10450552;28;20694;-71
2021/05/14 07:31:40;;;;;;;1.00;1.00;;;15.30;44.60;;;;;;10429387;28;20235;-71
2021/05/14 07:36:44;;;;;;;4.00;1.20;;;15.40;44.70;;;;;;10445073;28;20228;-71
2021/05/14 07:41:47;;;;;;;1.57;0.90;;;15.60;44.40;;;;;;10434318;28;20393;-71
2021/05/14 07:46:51;;;;;;;1.00;0.90;;;15.80;44.00;;;;;;10438716;28;20849;-71
2021/05/14 07:51:54;;;;;;;1.07;1.00;;;16.00;43.60;;;;;;10451080;28;20236;-71
2021/05/14 07:56:58;;;;;;;0.80;0.80;;;16.10;43.90;;;;;;10457085;28;20236;-71
2021/05/14 08:02:01;;;;;;;1.33;0.97;;;16.30;43.30;;;;;;10442987;28;20240;-71
2021/05/14 08:07:04;;;;;;;0.90;0.90;;;16.50;43.30;;;;;;10446611;28;20798;-70
2021/05/14 08:12:09;;;;;;;1.10;0.90;;;16.60;43.40;;;;;;10446719;28;20920;-71
2021/05/14 08:17:12;;;;;;;0.87;0.87;;;16.80;42.20;;;;;;10449990;28;20271;-71
2021/05/14 08:22:14;;;;;;;0.80;0.80;;;17.00;42.60;;;;;;10439887;28;20256;-71
2021/05/14 08:27:18;;;;;;;2.40;0.90;;;17.10;42.40;;;;;;10439225;28;20248;-71
2021/05/14 08:32:21;;;;;;;0.93;0.80;;;17.30;41.90;;;;;;10454392;28;20248;-71
2021/05/14 08:37:24;;;;;;;1.10;0.90;;;17.50;41.90;;;;;;10454846;28;20221;-71
2021/05/14 08:42:28;;;;;;;1.17;0.97;;;17.60;42.00;;;;;;10436360;28;20655;-71
2021/05/14 08:47:31;;;;;;;1.43;0.70;;;17.80;41.20;;;;;;10442418;28;20227;-71
2021/05/14 08:52:35;;;;;;;1.20;0.80;;;18.00;41.00;;;;;;10452688;28;20225;-71
2021/05/14 08:57:40;;;;;;;1.00;0.90;;;18.10;40.20;;;;;;10447986;28;20240;-70
2021/05/14 09:02:43;;;;;;;1.10;1.00;;;18.20;40.60;;;;;;10454942;28;20316;-70
2021/05/14 09:07:46;;;;;;;0.80;0.80;;;18.30;41.20;;;;;;10456532;28;20578;-71
2021/05/14 09:12:52;;;;;;;2.07;0.90;;;18.50;40.50;;;;;;10454893;28;20228;-71
2021/05/14 09:18:06;;;;;;;0.90;0.90;;;18.60;38.80;;;;;;10447860;28;20316;-71
2021/05/14 09:23:29;;;;;;;1.30;0.80;;;18.60;37.00;;;;;;10455329;28;20269;-71
2021/05/14 09:28:35;;;;;;;1.17;0.83;;;18.60;37.80;;;;;;10446972;28;20332;-71
2021/05/14 09:33:41;;;;;;;0.70;0.70;;;18.70;38.00;;;;;;10464778;28;20572;-71
2021/05/14 09:38:46;;;;;;;0.70;0.70;;;18.80;39.10;;;;;;10446756;28;20228;-71
2021/05/14 09:44:04;;;;;;;1.13;0.90;;;19.00;38.60;;;;;;10445554;28;20267;-71
2021/05/14 09:49:09;;;;;;;0.80;0.80;;;19.10;38.50;;;;;;10454126;28;20239;-70
2021/05/14 09:54:26;;;;;;;0.70;0.70;;;19.30;38.20;;;;;;10446032;28;20237;-71
2021/05/14 09:59:32;;;;;;;1.93;0.80;;;19.50;36.90;;;;;;10442781;28;20239;-71
2021/05/14 10:04:36;;;;;;;0.70;0.70;;;19.50;37.30;;;;;;10443982;28;20236;-71
2021/05/14 10:09:40;;;;;;;2.03;0.70;;;19.60;38.50;;;;;;10426679;28;20722;-71
2021/05/14 10:14:44;;;;;;;0.57;0.57;;;19.70;37.20;;;;;;10453421;28;20767;-71
2021/05/14 10:19:49;;;;;;;1.57;0.60;;;19.80;36.30;;;;;;10442595;28;20599;-71
2021/05/14 10:24:54;;;;;;;0.67;0.60;;;19.80;36.30;;;;;;10445377;28;20248;-71
2021/05/14 10:29:59;;;;;;;0.70;0.70;;;19.80;36.30;;;;;;10446804;28;20316;-71
2021/05/14 10:35:04;;;;;;;0.70;0.70;;;19.90;36.40;;;;;;10450209;28;20232;-71
2021/05/14 10:40:44;;;;;;;1.23;0.70;;;20.00;36.50;;;;;;10448901;28;20226;-71
2021/05/14 10:45:49;;;;;;;0.70;0.70;;;20.20;34.30;;;;;;10443357;28;20232;-71
2021/05/14 10:50:54;;;;;;;0.80;0.80;;;20.30;35.50;;;;;;10438742;28;20236;-71
2021/05/14 10:56:16;;;;;;;0.70;0.60;;;20.50;35.80;;;;;;10442524;28;20315;-71
2021/05/14 11:01:34;;;;;;;0.60;0.60;;;20.60;35.30;;;;;;10445974;28;20253;-71
2021/05/14 11:06:42;;;;;;;1.07;0.60;;;20.80;34.70;;;;;;10451246;28;20217;-72
2021/05/14 11:12:00;;;;;;;0.63;0.50;;;20.90;33.80;;;;;;10448454;28;20232;-72
2021/05/14 11:17:10;;;;;;;0.50;0.50;;;20.90;33.50;;;;;;10422419;28;20231;-71
2021/05/14 11:22:14;;;;;;;0.60;0.60;;;20.90;33.00;;;;;;10435593;28;20306;-71
2021/05/14 11:27:20;;;;;;;0.60;0.50;;;20.90;33.60;;;;;;10454400;28;20259;-71
2021/05/14 11:32:36;;;;;;;0.63;0.53;;;20.80;32.70;;;;;;10421310;28;20260;-71
2021/05/14 11:37:50;;;;;;;1.40;0.70;;;20.80;30.60;;;;;;10454031;28;20407;-71
2021/05/14 11:42:54;;;;;;;0.63;0.63;;;20.60;32.30;;;;;;10452637;28;20237;-71
2021/05/14 11:47:59;;;;;;;0.70;0.70;;;20.50;33.20;;;;;;10452706;28;20765;-72
2021/05/14 11:53:05;;;;;;;0.60;0.60;;;20.50;31.90;;;;;;10414727;28;20245;-71
2021/05/14 11:58:08;;;;;;;0.63;0.63;;;20.50;32.20;;;;;;10450801;28;20324;-70
2021/05/14 12:03:13;;;;;;;1.70;0.60;;;20.50;33.40;;;;;;10429228;28;20320;-71
2021/05/14 12:08:17;;;;;;;0.93;0.60;;;20.60;32.00;;;;;;10453063;28;20237;-71
2021/05/14 12:13:22;;;;;;;4.33;0.90;;;20.60;32.40;;;;;;10451957;28;20722;-72
2021/05/14 12:18:26;;;;;;;2.00;0.60;;;20.60;32.30;;;;;;10452586;28;20307;-71
2021/05/14 12:23:30;;;;;;;0.60;0.60;;;20.70;32.10;;;;;;10431359;28;20229;-72
2021/05/14 12:28:40;;;;;;;0.70;0.70;;;20.70;32.40;;;;;;10441838;28;20599;-71
2021/05/14 12:33:51;;;;;;;0.50;0.50;;;20.90;32.60;;;;;;10446275;28;20316;-71
2021/05/14 12:39:03;;;;;;;0.60;0.60;;;21.10;31.00;;;;;;10450695;28;20278;-71
2021/05/14 12:44:14;;;;;;;0.63;0.50;;;21.30;31.00;;;;;;10451326;28;20240;-71
2021/05/14 12:49:19;;;;;;;1.03;0.60;;;21.30;30.20;;;;;;10451841;28;20229;-71
2021/05/14 12:54:22;;;;;;;0.93;0.60;;;21.40;30.20;;;;;;10451371;28;20295;-71
2021/05/14 12:59:48;;;;;;;0.60;0.60;;;21.30;30.70;;;;;;10449576;28;20246;-70
2021/05/14 13:05:01;;;;;;;0.90;0.70;;;21.20;29.50;;;;;;10451302;28;20319;-71
2021/05/14 13:10:05;;;;;;;0.50;0.50;;;21.10;28.80;;;;;;10452011;28;20221;-71
2021/05/14 13:15:09;;;;;;;0.53;0.53;;;21.10;30.90;;;;;;10439207;28;20308;-70
2021/05/14 13:20:13;;;;;;;0.60;0.60;;;21.20;31.40;;;;;;10430815;28;20225;-71
2021/05/14 13:25:16;;;;;;;0.70;0.70;;;21.30;30.00;;;;;;10447586;28;20312;-71
2021/05/14 13:30:19;;;;;;;1.43;0.50;;;21.40;30.70;;;;;;10450262;28;20319;-72
2021/05/14 13:35:23;;;;;;;0.97;0.60;;;21.60;30.60;;;;;;10449500;28;20747;-71
2021/05/14 13:40:26;;;;;;;0.60;0.60;;;21.70;30.00;;;;;;10448156;28;20312;-71
2021/05/14 13:45:29;;;;;;;0.77;0.60;;;21.80;30.00;;;;;;10448534;28;20247;-71
2021/05/14 13:50:33;;;;;;;0.73;0.70;;;21.90;29.90;;;;;;10448235;28;20316;-71
2021/05/14 13:55:35;;;;;;;0.70;0.70;;;21.90;29.10;;;;;;10447565;28;20300;-71
2021/05/14 14:00:38;;;;;;;0.63;0.50;;;21.90;29.50;;;;;;10446359;28;20240;-71
2021/05/14 14:05:43;;;;;;;0.60;0.60;;;21.90;29.20;;;;;;10447206;28;20229;-71
2021/05/14 14:10:46;;;;;;;4.20;0.60;;;21.80;28.50;;;;;;10448398;28;20256;-71
2021/05/14 14:15:48;;;;;;;0.57;0.57;;;21.80;29.20;;;;;;10447579;28;20253;-71
2021/05/14 14:20:52;;;;;;;1.80;0.70;;;21.90;29.20;;;;;;10446499;28;20274;-71
2021/05/14 14:25:55;;;;;;;0.50;0.50;;;21.90;28.80;;;;;;10446865;28;20233;-71
2021/05/14 14:30:58;;;;;;;1.57;0.50;;;21.90;28.80;;;;;;10447238;28;20233;-71
2021/05/14 14:36:03;;;;;;;0.70;0.70;;;21.90;28.60;;;;;;10446758;28;20235;-71
2021/05/14 14:41:05;;;;;;;0.70;0.70;;;21.80;28.60;;;;;;10454945;28;20256;-71
2021/05/14 14:46:08;;;;;;;0.70;0.70;;;21.80;28.20;;;;;;10454920;28;20270;-70
2021/05/14 14:51:14;;;;;;;0.70;0.60;;;21.80;28.40;;;;;;10454768;28;20232;-71
2021/05/14 14:56:16;;;;;;;2.37;0.50;;;21.70;28.30;;;;;;10456014;28;20221;-71
2021/05/14 15:01:19;;;;;;;0.90;0.60;;;21.70;28.20;;;;;;10456183;28;20723;-71
2021/05/14 15:06:23;;;;;;;0.70;0.70;;;21.60;28.10;;;;;;10455517;28;20229;-70
2021/05/14 15:11:26;;;;;;;0.50;0.50;;;21.50;28.30;;;;;;10455735;28;20225;-70
2021/05/14 15:16:29;;;;;;;1.70;0.50;;;21.60;28.40;;;;;;10455152;28;20709;-71
2021/05/14 15:21:33;;;;;;;0.60;0.60;;;21.70;28.30;;;;;;10434713;28;20866;-71
2021/05/14 15:26:37;;;;;;;0.43;0.40;;;21.80;27.40;;;;;;10443586;28;20308;-71
2021/05/14 15:31:39;;;;;;;0.70;0.70;;;21.90;27.80;;;;;;10454567;28;20252;-70
2021/05/14 15:36:43;;;;;;;0.50;0.50;;;21.90;27.50;;;;;;10454605;28;20225;-70
2021/05/14 15:41:46;;;;;;;0.67;0.50;;;21.90;27.00;;;;;;10454234;28;20713;-71
2021/05/14 15:46:49;;;;;;;0.57;0.57;;;22.00;27.60;;;;;;10454111;28;20312;-71
2021/05/14 15:51:53;;;;;;;0.67;0.50;;;22.10;27.40;;;;;;10411287;28;20291;-72
2021/05/14 15:56:56;;;;;;;0.50;0.50;;;22.10;26.80;;;;;;10412170;28;20229;-72
2021/05/14 16:02:16;;;;;;;0.50;0.50;;;22.10;26.70;;;;;;10411089;28;20236;-71
2021/05/14 16:07:20;;;;;;;2.20;0.70;;;22.20;26.80;;;;;;10411142;28;20352;-72
2021/05/14 16:12:23;;;;;;;0.40;0.40;;;22.20;26.80;;;;;;10411672;28;20637;-72
2021/05/14 16:17:27;;;;;;;0.60;0.50;;;22.20;26.80;;;;;;10410676;28;20299;-71
2021/05/14 16:22:31;;;;;;;0.40;0.40;;;22.20;26.80;;;;;;10410156;28;20272;-71
2021/05/14 16:27:33;;;;;;;0.40;0.40;;;22.30;26.80;;;;;;10411962;28;20317;-73
2021/05/14 16:32:36;;;;;;;0.60;0.60;;;22.30;26.30;;;;;;10411375;28;20305;-71
2021/05/14 16:37:40;;;;;;;0.43;0.40;;;22.30;26.90;;;;;;10411248;28;20231;-72
2021/05/14 16:42:43;;;;;;;0.97;0.60;;;22.30;26.60;;;;;;10411090;28;20257;-72
2021/05/14 16:47:47;;;;;;;0.70;0.70;;;22.40;26.80;;;;;;10410907;28;20309;-72
2021/05/14 16:52:52;;;;;;;0.50;0.50;;;22.40;26.70;;;;;;10410612;28;20257;-72
2021/05/14 16:57:55;;;;;;;0.60;0.60;;;22.50;26.60;;;;;;10410373;28;20265;-72
2021/05/14 17:03:02;;;;;;;0.50;0.50;;;22.60;27.00;;;;;;10409375;28;20261;-72
2021/05/14 17:08:06;;;;;;;0.50;0.50;;;22.60;26.40;;;;;;10408571;28;20276;-71
2021/05/14 17:13:09;;;;;;;0.40;0.40;;;22.60;25.80;;;;;;10408775;28;20222;-71
2021/05/14 17:18:12;;;;;;;1.60;0.60;;;22.70;26.60;;;;;;10408540;28;20248;-72
2021/05/14 17:23:16;;;;;;;0.60;0.60;;;22.70;26.10;;;;;;10408349;28;20320;-71
2021/05/14 17:28:18;;;;;;;0.60;0.60;;;22.70;25.70;;;;;;10408434;28;20702;-72
2021/05/14 17:33:21;;;;;;;0.90;0.70;;;22.60;25.60;;;;;;10407701;28;20295;-68
2021/05/14 17:38:26;;;;;;;0.50;0.50;;;22.50;25.60;;;;;;10409191;28;20230;-70
2021/05/14 17:43:29;;;;;;;0.50;0.50;;;22.50;25.00;;;;;;10443063;28;20232;-70
2021/05/14 17:48:32;;;;;;;0.67;0.67;;;22.40;25.30;;;;;;10451886;28;20300;-70
2021/05/14 17:53:38;;;;;;;0.80;0.50;;;22.30;25.60;;;;;;10455172;28;20322;-70
2021/05/14 17:58:41;;;;;;;0.50;0.50;;;22.20;25.00;;;;;;10438090;28;20225;-70
2021/05/14 18:03:44;;;;;;;0.77;0.60;;;22.10;25.60;;;;;;10457269;28;20315;-70
2021/05/14 18:08:49;;;;;;;0.80;0.50;;;22.00;25.50;;;;;;10456681;28;20567;-69
2021/05/14 18:13:52;;;;;;;0.60;0.60;;;21.90;25.30;;;;;;10449919;28;20264;-72
2021/05/14 18:19:05;;;;;;;0.90;0.50;;;21.80;25.70;;;;;;10440784;28;20331;-70
2021/05/14 18:24:09;;;;;;;0.60;0.60;;;21.70;25.70;;;;;;10449778;28;20312;-70
2021/05/14 18:29:13;;;;;;;1.90;1.00;;;21.60;25.90;;;;;;10453460;28;20216;-70
2021/05/14 18:34:15;;;;;;;0.63;0.63;;;21.50;26.30;;;;;;10446658;28;20246;-70
2021/05/14 18:39:20;;;;;;;1.33;0.80;;;21.40;26.30;;;;;;10446600;28;20327;-70
2021/05/14 18:44:23;;;;;;;2.67;2.03;;;21.30;26.20;;;;;;10450069;28;20248;-71
2021/05/14 18:49:26;;;;;;;2.43;2.10;;;21.20;26.40;;;;;;10447052;28;20313;-70
2021/05/14 18:54:33;;;;;;;2.77;2.57;;;21.00;26.50;;;;;;10447951;28;20278;-70
2021/05/14 18:59:35;;;;;;;1.80;1.70;;;20.80;26.30;;;;;;10437929;28;20216;-70
2021/05/14 19:04:39;;;;;;;1.10;1.00;;;20.50;26.60;;;;;;10449620;28;20319;-70
2021/05/14 19:09:44;;;;;;;0.97;0.90;;;20.20;26.70;;;;;;10440715;28;20774;-70
2021/05/14 19:14:47;;;;;;;2.70;0.80;;;20.00;27.00;;;;;;10437756;28;20314;-70
2021/05/14 19:19:50;;;;;;;0.80;0.80;;;19.70;27.00;;;;;;10438544;28;20303;-70
2021/05/14 19:25:08;;;;;;;1.27;1.17;;;19.50;27.20;;;;;;10445789;28;20225;-72
2021/05/14 19:46:44;;;;;;;1.40;1.00;;;19.10;27.60;;;;;;10456646;28;20228;-70
2021/05/14 19:51:47;;;;;;;2.67;1.50;;;19.00;27.80;;;;;;10445302;28;20339;-69
2021/05/14 19:56:53;;;;;;;1.80;1.33;;;18.90;27.80;;;;;;10443799;28;20259;-72
2021/05/14 20:01:56;;;;;;;1.60;1.40;;;18.70;27.90;;;;;;10448945;28;20316;-71
2021/05/14 20:06:59;;;;;;;1.70;1.40;;;18.50;27.90;;;;;;10439605;28;20229;-71
2021/05/14 20:12:08;;;;;;;1.43;1.30;;;18.30;28.10;;;;;;10439867;28;20256;-71
2021/05/14 20:17:11;;;;;;;1.37;1.10;;;18.10;28.40;;;;;;10451563;28;20261;-71
2021/05/14 20:22:15;;;;;;;1.17;0.97;;;17.90;28.40;;;;;;10444626;28;20319;-70
2021/05/14 20:27:19;;;;;;;0.70;0.70;;;17.80;28.30;;;;;;10452113;28;20906;-70
2021/05/14 20:32:21;;;;;;;0.93;0.80;;;17.70;28.20;;;;;;10450615;28;20241;-70
2021/05/14 20:37:34;;;;;;;0.70;0.70;;;17.70;28.30;;;;;;10449764;28;20359;-69
2021/05/14 20:42:38;;;;;;;1.33;0.70;;;17.50;28.20;;;;;;10451403;28;20233;-69
2021/05/14 20:47:42;;;;;;;0.73;0.70;;;17.50;28.40;;;;;;10451242;28;20308;-69
2021/05/14 20:52:44;;;;;;;0.67;0.60;;;17.30;28.30;;;;;;10450266;28;20249;-69
2021/05/14 20:57:48;;;;;;;0.70;0.63;;;17.20;28.50;;;;;;10448043;28;20800;-70
2021/05/14 21:02:51;;;;;;;0.60;0.60;;;17.10;28.80;;;;;;10449687;28;20230;-68
2021/05/14 21:07:54;;;;;;;0.93;0.50;;;17.00;28.80;;;;;;10451284;28;20236;-70
2021/05/14 21:12:58;;;;;;;0.50;0.50;;;16.90;29.00;;;;;;10450746;28;20264;-69
2021/05/14 21:18:01;;;;;;;0.70;0.70;;;16.80;29.00;;;;;;10450762;28;20221;-70
2021/05/14 21:23:03;;;;;;;0.60;0.60;;;16.80;29.00;;;;;;10452717;28;20705;-70
2021/05/14 21:28:07;;;;;;;1.17;0.70;;;16.80;29.10;;;;;;10449513;28;20336;-70
2021/05/14 21:33:10;;;;;;;2.53;2.20;;;16.70;29.10;;;;;;10450492;28;20236;-70
2021/05/14 21:38:11;;;;;;;2.20;2.00;;;16.70;29.10;;;;;;10450820;28;20228;-70
2021/05/14 21:43:14;;;;;;;1.63;0.97;;;16.70;29.10;;;;;;10444958;28;20600;-70
2021/05/14 21:48:16;;;;;;;0.70;0.70;;;16.70;29.00;;;;;;10449450;28;20221;-70
2021/05/14 21:53:17;;;;;;;0.63;0.63;;;16.70;28.80;;;;;;10453889;28;20240;-70
2021/05/14 21:58:21;;;;;;;0.50;0.50;;;16.70;28.80;;;;;;10450479;28;20232;-70
2021/05/14 22:03:23;;;;;;;0.73;0.60;;;16.80;28.80;;;;;;10454381;28;20609;-70
2021/05/14 22:08:25;;;;;;;0.90;0.60;;;16.80;28.80;;;;;;10445482;28;20225;-70
2021/05/14 22:13:30;;;;;;;0.50;0.50;;;16.80;29.00;;;;;;10447381;28;20713;-70
2021/05/14 22:18:31;;;;;;;1.03;0.73;;;16.80;29.10;;;;;;10452829;28;20244;-70
2021/05/14 22:23:33;;;;;;;0.40;0.40;;;16.70;29.20;;;;;;10445704;28;20236;-70
2021/05/14 22:28:35;;;;;;;0.50;0.50;;;16.70;29.50;;;;;;10460126;28;20226;-70
2021/05/14 22:33:37;;;;;;;0.77;0.50;;;16.70;29.90;;;;;;10450140;28;20819;-70
2021/05/14 22:38:39;;;;;;;0.70;0.60;;;16.60;29.80;;;;;;10444988;28;20224;-70
2021/05/14 22:43:41;;;;;;;0.60;0.60;;;16.60;30.10;;;;;;10442663;28;20229;-70
2021/05/14 22:48:43;;;;;;;0.40;0.40;;;16.70;30.20;;;;;;10442725;28;20221;-70
2021/05/14 22:53:45;;;;;;;0.70;0.67;;;16.60;30.10;;;;;;10442874;28;20718;-69
2021/05/14 22:58:47;;;;;;;0.60;0.60;;;16.60;30.00;;;;;;10446193;28;20250;-69
2021/05/14 23:03:49;;;;;;;0.60;0.60;;;16.40;30.20;;;;;;10461987;28;20233;-69
2021/05/14 23:08:51;;;;;;;0.93;0.70;;;16.30;30.30;;;;;;10466521;28;20278;-69
2021/05/14 23:13:53;;;;;;;0.73;0.60;;;16.20;30.50;;;;;;10461107;28;20232;-69
2021/05/14 23:18:55;;;;;;;0.87;0.50;;;16.10;30.40;;;;;;10453650;28;20309;-69
2021/05/14 23:23:56;;;;;;;0.90;0.70;;;16.10;30.40;;;;;;10450944;28;20229;-69
2021/05/14 23:28:59;;;;;;;0.53;0.50;;;16.00;30.60;;;;;;10462905;28;20255;-70
2021/05/14 23:34:00;;;;;;;0.57;0.57;;;15.90;30.90;;;;;;10455205;28;20741;-69
2021/05/14 23:39:02;;;;;;;0.60;0.60;;;15.90;31.10;;;;;;10450308;28;20213;-69
2021/05/14 23:44:05;;;;;;;0.60;0.60;;;15.90;31.10;;;;;;10464081;28;20660;-69
2021/05/14 23:49:06;;;;;;;1.83;1.20;;;15.90;31.40;;;;;;10449633;28;20249;-70
2021/05/14 23:54:08;;;;;;;0.97;0.73;;;15.80;31.30;;;;;;10456582;28;20225;-70
2021/05/14 23:59:10;;;;;;;0.50;0.50;;;15.70;31.30;;;;;;10456142;28;20228;-70
